Minneapolis, MN (55423)

10:27 AM CDT on July 24, 2016 (GMT -0500)
Ferd Pond | | Change Station

Elev 827 ft 44.89 °N, 93.26 °W | Updated 4 minutes ago

Scattered Clouds
Scattered Clouds
77.0 °F
Feels Like 79 °F
N
0.0
Wind Variable Wind from SE

Today
High -- | Low -- °F
--% Chance of Precip.
Yesterday
High -- | Low -- °F
Precip. -- in
Pressure 29.84 in
Visibility 10.0 miles
Clouds Few 1300 ft
Scattered Clouds 25000 ft
Heat Index 79 °F
Dew Point 68 °F
Humidity 73%
Rainfall 0.00 in
Snow Depth Not available.
5:50 AM 8:47 PM
Waning Gibbous, 75% visible
METAR KMSP 241453Z 31009KT 10SM FEW013 SCT250 26/19 A2985 RMK AO2 SLP103 T02610194 51014
Pressure 29.84 in
Visibility 10.0 miles
Clouds Few 1300 ft
Scattered Clouds 25000 ft
Heat Index 79 °F
Dew Point 68 °F
Humidity 73%
Rainfall 0.00 in
Snow Depth Not available.
5:50 AM 8:47 PM
Waning Gibbous, 75% visible
METAR KMSP 241453Z 31009KT 10SM FEW013 SCT250 26/19 A2985 RMK AO2 SLP103 T02610194 51014

10-Day Weather Forecast

Almanac

Astronomy

Jul. 24, 2016 Rise Set
Actual Time
Civil Twilight
Nautical Twilight
Astronomical Twilight
Moon
Length of Visible Light
Length of Day
Tomorrow will be .
, % of the Moon is Illuminated

Today's Extremes

State Highs State Lows

Community

WunderPhotos

Upload Photos

1,927,086 photos uploaded!

WunderBlog® & News

Nearby

Air Quality

  Air Quality AQ Index Pollutant
Not available.

Snow Depth

Station Depth Elevation

Earthquake Activity

City Distance Mag. Time & Date
Minimum magnitude displayed is 2.5.

Coastal Water Temperatures

Place Temperature

Stations

Nearby Weather Stations

Station Location Temp. Windchill Dew Point Humidity Wind Precip. Elev Updated Type
                   

Watches & Warnings

There are currently no watches in effect.